sensor_id;sensor_type;location;lat;lon;timestamp;P1;durP1;ratioP1;P2;durP2;ratioP2
9938;SDS011;5008;50.656;7.188;2023-02-07T05:00:44;4.03;;;2.90;;
9938;SDS011;5008;50.656;7.188;2023-02-07T05:03:12;4.97;;;3.50;;
9938;SDS011;5008;50.656;7.188;2023-02-07T05:05:39;3.43;;;3.00;;
9938;SDS011;5008;50.656;7.188;2023-02-07T05:08:08;3.03;;;2.73;;
9938;SDS011;5008;50.656;7.188;2023-02-07T05:10:36;4.77;;;3.90;;
9938;SDS011;5008;50.656;7.188;2023-02-07T05:13:03;3.77;;;3.10;;
9938;SDS011;5008;50.656;7.188;2023-02-07T05:15:31;3.43;;;2.93;;
9938;SDS011;5008;50.656;7.188;2023-02-07T05:17:59;3.53;;;2.83;;
9938;SDS011;5008;50.656;7.188;2023-02-07T05:20:26;4.87;;;3.40;;
9938;SDS011;5008;50.656;7.188;2023-02-07T05:22:53;4.37;;;3.33;;
9938;SDS011;5008;50.656;7.188;2023-02-07T05:25:20;4.80;;;3.30;;
9938;SDS011;5008;50.656;7.188;2023-02-07T05:27:47;5.23;;;3.70;;
9938;SDS011;5008;50.656;7.188;2023-02-07T05:30:14;4.07;;;3.50;;
9938;SDS011;5008;50.656;7.188;2023-02-07T05:32:40;7.37;;;4.70;;
9938;SDS011;5008;50.656;7.188;2023-02-07T05:35:26;6.07;;;4.17;;
9938;SDS011;5008;50.656;7.188;2023-02-07T05:37:53;6.50;;;4.37;;
9938;SDS011;5008;50.656;7.188;2023-02-07T05:40:20;6.90;;;4.43;;
9938;SDS011;5008;50.656;7.188;2023-02-07T05:42:47;4.10;;;3.07;;
9938;SDS011;5008;50.656;7.188;2023-02-07T05:45:14;4.50;;;3.30;;
9938;SDS011;5008;50.656;7.188;2023-02-07T05:47:41;4.47;;;3.07;;
9938;SDS011;5008;50.656;7.188;2023-02-07T05:50:08;6.20;;;3.70;;
9938;SDS011;5008;50.656;7.188;2023-02-07T05:52:36;4.23;;;3.57;;
9938;SDS011;5008;50.656;7.188;2023-02-07T05:55:03;6.07;;;4.50;;
9938;SDS011;5008;50.656;7.188;2023-02-07T05:57:30;5.87;;;4.83;;
9938;SDS011;5008;50.656;7.188;2023-02-07T05:59:57;7.33;;;4.83;;
9938;SDS011;5008;50.656;7.188;2023-02-07T06:02:24;8.30;;;4.90;;
9938;SDS011;5008;50.656;7.188;2023-02-07T06:04:51;5.77;;;4.50;;
9938;SDS011;5008;50.656;7.188;2023-02-07T06:07:17;7.30;;;5.63;;
9938;SDS011;5008;50.656;7.188;2023-02-07T06:09:45;6.30;;;4.60;;
9938;SDS011;5008;50.656;7.188;2023-02-07T06:12:12;8.30;;;5.97;;
9938;SDS011;5008;50.656;7.188;2023-02-07T06:14:39;5.50;;;4.90;;
9938;SDS011;5008;50.656;7.188;2023-02-07T06:17:06;6.37;;;5.13;;
9938;SDS011;5008;50.656;7.188;2023-02-07T06:19:33;7.00;;;4.07;;
9938;SDS011;5008;50.656;7.188;2023-02-07T06:21:59;5.37;;;4.00;;
9938;SDS011;5008;50.656;7.188;2023-02-07T06:24:26;5.50;;;3.97;;
9938;SDS011;5008;50.656;7.188;2023-02-07T06:26:54;3.97;;;3.57;;
9938;SDS011;5008;50.656;7.188;2023-02-07T06:29:21;4.07;;;3.57;;
9938;SDS011;5008;50.656;7.188;2023-02-07T06:31:48;4.10;;;3.60;;
9938;SDS011;5008;50.656;7.188;2023-02-07T06:34:14;5.23;;;3.57;;
9938;SDS011;5008;50.656;7.188;2023-02-07T06:36:41;3.60;;;3.30;;
9938;SDS011;5008;50.656;7.188;2023-02-07T06:39:08;4.23;;;3.57;;
9938;SDS011;5008;50.656;7.188;2023-02-07T06:41:35;4.43;;;3.73;;
9938;SDS011;5008;50.656;7.188;2023-02-07T06:44:03;4.10;;;3.70;;
9938;SDS011;5008;50.656;7.188;2023-02-07T06:46:30;4.87;;;4.00;;
9938;SDS011;5008;50.656;7.188;2023-02-07T06:48:57;5.63;;;4.43;;
9938;SDS011;5008;50.656;7.188;2023-02-07T06:51:24;4.80;;;3.37;;
9938;SDS011;5008;50.656;7.188;2023-02-07T06:53:50;4.07;;;3.50;;
9938;SDS011;5008;50.656;7.188;2023-02-07T06:56:17;4.37;;;3.97;;
9938;SDS011;5008;50.656;7.188;2023-02-07T06:58:44;4.07;;;3.67;;
9938;SDS011;5008;50.656;7.188;2023-02-07T07:01:12;4.70;;;4.20;;
9938;SDS011;5008;50.656;7.188;2023-02-07T07:03:44;4.47;;;3.87;;
9938;SDS011;5008;50.656;7.188;2023-02-07T07:06:10;5.10;;;4.00;;
9938;SDS011;5008;50.656;7.188;2023-02-07T07:08:37;4.77;;;4.13;;
9938;SDS011;5008;50.656;7.188;2023-02-07T07:11:04;7.13;;;4.07;;
9938;SDS011;5008;50.656;7.188;2023-02-07T07:13:31;5.37;;;4.47;;
9938;SDS011;5008;50.656;7.188;2023-02-07T07:15:58;6.83;;;4.20;;
9938;SDS011;5008;50.656;7.188;2023-02-07T07:18:27;4.60;;;4.10;;
9938;SDS011;5008;50.656;7.188;2023-02-07T07:20:54;5.70;;;4.30;;
9938;SDS011;5008;50.656;7.188;2023-02-07T07:23:21;6.27;;;4.53;;
9938;SDS011;5008;50.656;7.188;2023-02-07T07:25:48;5.43;;;4.23;;
9938;SDS011;5008;50.656;7.188;2023-02-07T07:28:15;5.57;;;4.63;;
9938;SDS011;5008;50.656;7.188;2023-02-07T07:30:42;4.63;;;4.20;;
9938;SDS011;5008;50.656;7.188;2023-02-07T07:33:08;5.80;;;4.90;;
9938;SDS011;5008;50.656;7.188;2023-02-07T07:35:37;7.03;;;4.97;;
9938;SDS011;5008;50.656;7.188;2023-02-07T07:38:03;6.87;;;5.27;;
9938;SDS011;5008;50.656;7.188;2023-02-07T07:40:30;6.93;;;5.13;;
9938;SDS011;5008;50.656;7.188;2023-02-07T07:42:57;6.90;;;5.57;;
9938;SDS011;5008;50.656;7.188;2023-02-07T07:45:24;6.57;;;5.20;;
9938;SDS011;5008;50.656;7.188;2023-02-07T07:47:50;5.40;;;4.83;;
9938;SDS011;5008;50.656;7.188;2023-02-07T07:50:26;6.13;;;5.30;;
9938;SDS011;5008;50.656;7.188;2023-02-07T07:52:55;7.60;;;6.00;;
9938;SDS011;5008;50.656;7.188;2023-02-07T07:55:21;7.77;;;6.43;;
9938;SDS011;5008;50.656;7.188;2023-02-07T07:57:48;9.80;;;6.20;;
9938;SDS011;5008;50.656;7.188;2023-02-07T08:00:15;8.97;;;6.93;;
9938;SDS011;5008;50.656;7.188;2023-02-07T08:02:42;8.20;;;6.60;;
9938;SDS011;5008;50.656;7.188;2023-02-07T08:05:09;7.70;;;6.43;;
9938;SDS011;5008;50.656;7.188;2023-02-07T08:07:36;7.13;;;5.17;;
9938;SDS011;5008;50.656;7.188;2023-02-07T08:10:04;5.87;;;5.03;;
9938;SDS011;5008;50.656;7.188;2023-02-07T08:12:32;7.80;;;5.63;;
9938;SDS011;5008;50.656;7.188;2023-02-07T08:14:59;9.47;;;5.27;;
9938;SDS011;5008;50.656;7.188;2023-02-07T08:17:25;8.60;;;5.43;;
9938;SDS011;5008;50.656;7.188;2023-02-07T08:19:52;6.17;;;4.80;;
9938;SDS011;5008;50.656;7.188;2023-02-07T08:22:19;6.07;;;4.83;;
9938;SDS011;5008;50.656;7.188;2023-02-07T08:24:45;6.13;;;4.67;;
9938;SDS011;5008;50.656;7.188;2023-02-07T08:27:14;5.63;;;5.03;;
9938;SDS011;5008;50.656;7.188;2023-02-07T08:29:40;5.57;;;4.43;;
9938;SDS011;5008;50.656;7.188;2023-02-07T08:35:06;6.90;;;4.73;;
9938;SDS011;5008;50.656;7.188;2023-02-07T08:37:33;5.60;;;4.57;;
9938;SDS011;5008;50.656;7.188;2023-02-07T08:40:00;5.10;;;4.60;;
9938;SDS011;5008;50.656;7.188;2023-02-07T08:42:30;5.07;;;4.57;;
9938;SDS011;5008;50.656;7.188;2023-02-07T08:44:56;5.80;;;4.43;;
9938;SDS011;5008;50.656;7.188;2023-02-07T08:47:23;6.73;;;5.33;;
9938;SDS011;5008;50.656;7.188;2023-02-07T08:49:50;6.17;;;4.90;;
9938;SDS011;5008;50.656;7.188;2023-02-07T08:52:17;6.50;;;5.40;;
9938;SDS011;5008;50.656;7.188;2023-02-07T08:54:44;6.50;;;4.93;;
9938;SDS011;5008;50.656;7.188;2023-02-07T08:57:11;6.97;;;5.47;;
9938;SDS011;5008;50.656;7.188;2023-02-07T08:59:39;5.63;;;5.00;;
9938;SDS011;5008;50.656;7.188;2023-02-07T09:02:06;5.60;;;5.10;;
9938;SDS011;5008;50.656;7.188;2023-02-07T09:04:33;5.77;;;5.17;;
9938;SDS011;5008;50.656;7.188;2023-02-07T09:07:00;5.63;;;5.03;;
9938;SDS011;5008;50.656;7.188;2023-02-07T09:09:27;6.70;;;4.90;;
9938;SDS011;5008;50.656;7.188;2023-02-07T09:11:54;6.70;;;5.47;;
9938;SDS011;5008;50.656;7.188;2023-02-07T09:14:21;5.70;;;5.10;;
9938;SDS011;5008;50.656;7.188;2023-02-07T09:16:49;5.47;;;4.97;;
9938;SDS011;5008;50.656;7.188;2023-02-07T09:19:16;5.10;;;4.50;;
9938;SDS011;5008;50.656;7.188;2023-02-07T09:21:43;6.13;;;4.90;;
9938;SDS011;5008;50.656;7.188;2023-02-07T09:24:10;5.20;;;4.63;;
9938;SDS011;5008;50.656;7.188;2023-02-07T09:26:37;4.40;;;4.00;;
9938;SDS011;5008;50.656;7.188;2023-02-07T09:29:07;5.63;;;4.70;;
9938;SDS011;5008;50.656;7.188;2023-02-07T09:31:37;5.07;;;4.53;;
9938;SDS011;5008;50.656;7.188;2023-02-07T09:34:06;5.00;;;4.50;;
9938;SDS011;5008;50.656;7.188;2023-02-07T09:36:33;4.77;;;4.37;;
9938;SDS011;5008;50.656;7.188;2023-02-07T09:39:00;5.73;;;4.10;;
9938;SDS011;5008;50.656;7.188;2023-02-07T09:41:29;5.37;;;4.77;;
9938;SDS011;5008;50.656;7.188;2023-02-07T09:44:06;5.43;;;4.50;;
9938;SDS011;5008;50.656;7.188;2023-02-07T09:46:41;6.33;;;4.80;;
9938;SDS011;5008;50.656;7.188;2023-02-07T09:49:16;5.30;;;4.27;;
9938;SDS011;5008;50.656;7.188;2023-02-07T09:51:53;5.43;;;4.57;;
9938;SDS011;5008;50.656;7.188;2023-02-07T09:54:23;5.33;;;4.30;;
9938;SDS011;5008;50.656;7.188;2023-02-07T09:56:54;6.07;;;4.50;;
9938;SDS011;5008;50.656;7.188;2023-02-07T09:59:25;5.00;;;4.47;;
9938;SDS011;5008;50.656;7.188;2023-02-07T10:02:04;5.80;;;5.30;;
9938;SDS011;5008;50.656;7.188;2023-02-07T10:04:43;5.33;;;4.83;;
9938;SDS011;5008;50.656;7.188;2023-02-07T10:07:13;5.43;;;4.87;;
9938;SDS011;5008;50.656;7.188;2023-02-07T10:09:41;5.33;;;4.50;;
9938;SDS011;5008;50.656;7.188;2023-02-07T10:12:12;5.27;;;4.60;;
9938;SDS011;5008;50.656;7.188;2023-02-07T10:15:03;6.40;;;5.03;;
9938;SDS011;5008;50.656;7.188;2023-02-07T10:17:45;5.70;;;4.73;;
9938;SDS011;5008;50.656;7.188;2023-02-07T10:20:23;5.00;;;4.37;;
9938;SDS011;5008;50.656;7.188;2023-02-07T10:22:58;4.80;;;4.23;;
9938;SDS011;5008;50.656;7.188;2023-02-07T10:25:35;5.47;;;4.60;;
9938;SDS011;5008;50.656;7.188;2023-02-07T10:28:24;4.90;;;4.40;;
9938;SDS011;5008;50.656;7.188;2023-02-07T10:31:11;5.37;;;4.87;;
9938;SDS011;5008;50.656;7.188;2023-02-07T10:33:46;5.43;;;4.93;;
9938;SDS011;5008;50.656;7.188;2023-02-07T10:36:16;5.90;;;4.67;;
9938;SDS011;5008;50.656;7.188;2023-02-07T10:38:44;5.47;;;4.80;;
9938;SDS011;5008;50.656;7.188;2023-02-07T10:41:19;5.47;;;4.83;;
9938;SDS011;5008;50.656;7.188;2023-02-07T10:43:51;6.20;;;4.90;;
9938;SDS011;5008;50.656;7.188;2023-02-07T10:46:18;6.03;;;5.43;;
9938;SDS011;5008;50.656;7.188;2023-02-07T10:48:47;5.37;;;4.73;;
9938;SDS011;5008;50.656;7.188;2023-02-07T10:51:20;5.23;;;4.73;;
9938;SDS011;5008;50.656;7.188;2023-02-07T10:53:59;5.70;;;5.13;;
9938;SDS011;5008;50.656;7.188;2023-02-07T10:56:28;5.73;;;5.10;;
9938;SDS011;5008;50.656;7.188;2023-02-07T10:58:58;5.00;;;4.50;;
9938;SDS011;5008;50.656;7.188;2023-02-07T11:01:26;6.53;;;4.73;;
9938;SDS011;5008;50.656;7.188;2023-02-07T11:03:54;6.50;;;4.97;;
9938;SDS011;5008;50.656;7.188;2023-02-07T11:06:26;5.57;;;5.07;;
9938;SDS011;5008;50.656;7.188;2023-02-07T11:09:10;6.17;;;5.07;;
9938;SDS011;5008;50.656;7.188;2023-02-07T11:11:38;8.10;;;5.10;;
9938;SDS011;5008;50.656;7.188;2023-02-07T11:14:10;6.13;;;5.53;;
9938;SDS011;5008;50.656;7.188;2023-02-07T11:19:13;8.57;;;4.93;;
9938;SDS011;5008;50.656;7.188;2023-02-07T11:21:44;6.37;;;4.57;;
9938;SDS011;5008;50.656;7.188;2023-02-07T11:24:23;5.50;;;4.90;;
9938;SDS011;5008;50.656;7.188;2023-02-07T11:26:54;5.80;;;4.97;;
9938;SDS011;5008;50.656;7.188;2023-02-07T11:29:26;5.27;;;4.77;;
9938;SDS011;5008;50.656;7.188;2023-02-07T11:31:55;6.23;;;5.47;;
9938;SDS011;5008;50.656;7.188;2023-02-07T11:34:41;4.80;;;4.40;;
9938;SDS011;5008;50.656;7.188;2023-02-07T11:37:22;4.47;;;4.00;;
9938;SDS011;5008;50.656;7.188;2023-02-07T11:39:52;4.50;;;4.07;;
9938;SDS011;5008;50.656;7.188;2023-02-07T11:42:40;5.97;;;5.00;;
9938;SDS011;5008;50.656;7.188;2023-02-07T11:45:11;6.20;;;5.07;;
9938;SDS011;5008;50.656;7.188;2023-02-07T11:47:39;8.00;;;5.10;;
9938;SDS011;5008;50.656;7.188;2023-02-07T11:50:10;5.10;;;4.60;;
9938;SDS011;5008;50.656;7.188;2023-02-07T11:52:49;5.53;;;5.03;;
9938;SDS011;5008;50.656;7.188;2023-02-07T11:55:20;5.77;;;4.80;;
9938;SDS011;5008;50.656;7.188;2023-02-07T11:57:48;5.73;;;4.47;;
9938;SDS011;5008;50.656;7.188;2023-02-07T12:00:17;6.03;;;4.83;;
9938;SDS011;5008;50.656;7.188;2023-02-07T12:02:50;5.20;;;4.63;;
9938;SDS011;5008;50.656;7.188;2023-02-07T12:05:24;5.37;;;4.83;;
9938;SDS011;5008;50.656;7.188;2023-02-07T12:07:57;5.00;;;4.50;;
9938;SDS011;5008;50.656;7.188;2023-02-07T12:10:26;4.47;;;4.07;;
9938;SDS011;5008;50.656;7.188;2023-02-07T12:12:57;6.13;;;4.95;;
9938;SDS011;5008;50.656;7.188;2023-02-07T12:15:31;5.77;;;5.00;;
9938;SDS011;5008;50.656;7.188;2023-02-07T12:18:02;5.53;;;4.70;;
9938;SDS011;5008;50.656;7.188;2023-02-07T12:20:32;6.13;;;4.60;;
9938;SDS011;5008;50.656;7.188;2023-02-07T12:23:04;5.13;;;4.63;;
9938;SDS011;5008;50.656;7.188;2023-02-07T12:25:35;3.90;;;3.47;;
9938;SDS011;5008;50.656;7.188;2023-02-07T12:28:09;4.97;;;4.47;;
9938;SDS011;5008;50.656;7.188;2023-02-07T12:30:43;4.87;;;4.47;;
9938;SDS011;5008;50.656;7.188;2023-02-07T12:33:14;4.20;;;3.80;;
9938;SDS011;5008;50.656;7.188;2023-02-07T12:35:51;6.50;;;4.40;;
9938;SDS011;5008;50.656;7.188;2023-02-07T12:38:25;5.07;;;4.57;;
9938;SDS011;5008;50.656;7.188;2023-02-07T12:40:56;4.03;;;3.63;;
9938;SDS011;5008;50.656;7.188;2023-02-07T12:43:36;5.50;;;4.50;;
9938;SDS011;5008;50.656;7.188;2023-02-07T12:46:11;4.77;;;4.27;;
9938;SDS011;5008;50.656;7.188;2023-02-07T12:51:37;5.20;;;4.80;;
9938;SDS011;5008;50.656;7.188;2023-02-07T12:54:18;4.80;;;4.40;;
9938;SDS011;5008;50.656;7.188;2023-02-07T12:56:59;4.72;;;4.32;;
9938;SDS011;5008;50.656;7.188;2023-02-07T12:59:36;5.65;;;5.15;;
9938;SDS011;5008;50.656;7.188;2023-02-07T13:02:18;5.53;;;5.03;;
9938;SDS011;5008;50.656;7.188;2023-02-07T13:08:06;5.25;;;4.72;;
9938;SDS011;5008;50.656;7.188;2023-02-07T13:10:46;6.00;;;5.43;;
9938;SDS011;5008;50.656;7.188;2023-02-07T13:13:20;6.10;;;4.93;;
9938;SDS011;5008;50.656;7.188;2023-02-07T13:15:51;4.63;;;4.22;;
9938;SDS011;5008;50.656;7.188;2023-02-07T13:18:24;4.93;;;4.53;;
9938;SDS011;5008;50.656;7.188;2023-02-07T13:21:00;5.28;;;4.78;;
9938;SDS011;5008;50.656;7.188;2023-02-07T13:23:35;5.40;;;5.00;;
9938;SDS011;5008;50.656;7.188;2023-02-07T13:26:08;4.78;;;4.38;;
9938;SDS011;5008;50.656;7.188;2023-02-07T13:28:39;5.10;;;4.70;;
9938;SDS011;5008;50.656;7.188;2023-02-07T13:31:10;5.30;;;4.82;;
9938;SDS011;5008;50.656;7.188;2023-02-07T13:33:41;5.22;;;4.82;;
9938;SDS011;5008;50.656;7.188;2023-02-07T13:36:11;5.30;;;4.78;;
9938;SDS011;5008;50.656;7.188;2023-02-07T13:38:49;5.90;;;5.18;;
9938;SDS011;5008;50.656;7.188;2023-02-07T13:41:38;4.97;;;4.57;;
9938;SDS011;5008;50.656;7.188;2023-02-07T13:44:13;5.55;;;5.05;;
9938;SDS011;5008;50.656;7.188;2023-02-07T13:47:01;4.60;;;4.20;;
9938;SDS011;5008;50.656;7.188;2023-02-07T13:49:40;5.38;;;4.88;;
9938;SDS011;5008;50.656;7.188;2023-02-07T13:52:11;4.68;;;4.28;;
9938;SDS011;5008;50.656;7.188;2023-02-07T13:54:42;5.18;;;4.68;;
9938;SDS011;5008;50.656;7.188;2023-02-07T13:57:19;5.10;;;4.60;;
9938;SDS011;5008;50.656;7.188;2023-02-07T14:00:06;4.65;;;4.25;;
9938;SDS011;5008;50.656;7.188;2023-02-07T14:02:44;4.95;;;4.55;;
9938;SDS011;5008;50.656;7.188;2023-02-07T14:05:18;4.93;;;4.53;;
9938;SDS011;5008;50.656;7.188;2023-02-07T14:07:53;5.65;;;5.15;;
9938;SDS011;5008;50.656;7.188;2023-02-07T14:10:36;5.35;;;4.85;;
9938;SDS011;5008;50.656;7.188;2023-02-07T14:13:20;5.43;;;4.93;;
9938;SDS011;5008;50.656;7.188;2023-02-07T14:15:54;4.93;;;4.53;;
9938;SDS011;5008;50.656;7.188;2023-02-07T14:21:23;5.10;;;4.70;;
9938;SDS011;5008;50.656;7.188;2023-02-07T14:24:03;4.82;;;4.43;;
9938;SDS011;5008;50.656;7.188;2023-02-07T14:29:51;5.00;;;4.70;;
9938;SDS011;5008;50.656;7.188;2023-02-07T14:32:31;5.85;;;4.68;;
9938;SDS011;5008;50.656;7.188;2023-02-07T14:35:11;5.00;;;4.60;;
9938;SDS011;5008;50.656;7.188;2023-02-07T14:38:08;5.70;;;4.95;;
9938;SDS011;5008;50.656;7.188;2023-02-07T14:40:49;5.35;;;4.95;;
9938;SDS011;5008;50.656;7.188;2023-02-07T14:43:27;5.18;;;4.78;;
9938;SDS011;5008;50.656;7.188;2023-02-07T14:46:07;6.55;;;5.38;;
9938;SDS011;5008;50.656;7.188;2023-02-07T14:48:41;7.07;;;4.30;;
9938;SDS011;5008;50.656;7.188;2023-02-07T14:51:14;5.70;;;5.20;;
9938;SDS011;5008;50.656;7.188;2023-02-07T14:53:44;5.03;;;4.50;;
9938;SDS011;5008;50.656;7.188;2023-02-07T14:56:22;4.97;;;4.57;;
9938;SDS011;5008;50.656;7.188;2023-02-07T14:58:54;5.20;;;4.70;;
9938;SDS011;5008;50.656;7.188;2023-02-07T15:01:23;4.83;;;4.40;;
9938;SDS011;5008;50.656;7.188;2023-02-07T15:03:58;3.75;;;3.42;;
9938;SDS011;5008;50.656;7.188;2023-02-07T15:06:28;7.00;;;4.70;;
9938;SDS011;5008;50.656;7.188;2023-02-07T15:09:00;4.80;;;4.40;;
9938;SDS011;5008;50.656;7.188;2023-02-07T15:11:28;5.73;;;4.07;;
9938;SDS011;5008;50.656;7.188;2023-02-07T15:13:56;4.97;;;4.47;;
9938;SDS011;5008;50.656;7.188;2023-02-07T15:16:26;5.63;;;5.00;;
9938;SDS011;5008;50.656;7.188;2023-02-07T15:18:57;5.40;;;4.13;;
9938;SDS011;5008;50.656;7.188;2023-02-07T15:21:30;5.13;;;4.10;;
9938;SDS011;5008;50.656;7.188;2023-02-07T15:24:00;4.50;;;4.10;;
9938;SDS011;5008;50.656;7.188;2023-02-07T15:26:30;5.03;;;4.60;;
9938;SDS011;5008;50.656;7.188;2023-02-07T15:28:59;4.83;;;4.00;;
9938;SDS011;5008;50.656;7.188;2023-02-07T15:31:27;5.50;;;4.63;;
9938;SDS011;5008;50.656;7.188;2023-02-07T15:33:55;4.60;;;4.10;;
9938;SDS011;5008;50.656;7.188;2023-02-07T15:36:32;5.00;;;4.40;;
9938;SDS011;5008;50.656;7.188;2023-02-07T15:39:00;4.97;;;3.80;;
9938;SDS011;5008;50.656;7.188;2023-02-07T15:41:29;4.87;;;4.40;;
9938;SDS011;5008;50.656;7.188;2023-02-07T15:43:57;6.77;;;4.90;;
9938;SDS011;5008;50.656;7.188;2023-02-07T15:46:26;6.27;;;4.67;;
9938;SDS011;5008;50.656;7.188;2023-02-07T15:49:20;7.27;;;4.60;;
9938;SDS011;5008;50.656;7.188;2023-02-07T15:51:54;5.57;;;4.60;;
9938;SDS011;5008;50.656;7.188;2023-02-07T15:54:27;4.90;;;4.40;;
9938;SDS011;5008;50.656;7.188;2023-02-07T15:56:55;4.67;;;4.23;;
9938;SDS011;5008;50.656;7.188;2023-02-07T15:59:24;5.30;;;4.30;;
9938;SDS011;5008;50.656;7.188;2023-02-07T16:01:53;5.30;;;4.67;;
9938;SDS011;5008;50.656;7.188;2023-02-07T16:04:22;4.90;;;4.10;;
9938;SDS011;5008;50.656;7.188;2023-02-07T16:06:54;6.50;;;4.70;;
9938;SDS011;5008;50.656;7.188;2023-02-07T16:09:32;7.03;;;5.10;;
9938;SDS011;5008;50.656;7.188;2023-02-07T16:15:19;6.43;;;5.73;;
9938;SDS011;5008;50.656;7.188;2023-02-07T16:17:48;9.13;;;6.50;;
9938;SDS011;5008;50.656;7.188;2023-02-07T16:20:15;7.37;;;5.90;;
9938;SDS011;5008;50.656;7.188;2023-02-07T16:22:43;6.20;;;5.07;;
9938;SDS011;5008;50.656;7.188;2023-02-07T16:25:12;7.17;;;5.17;;
9938;SDS011;5008;50.656;7.188;2023-02-07T16:27:43;6.03;;;4.67;;
9938;SDS011;5008;50.656;7.188;2023-02-07T16:30:14;4.50;;;4.10;;
9938;SDS011;5008;50.656;7.188;2023-02-07T16:32:43;5.17;;;4.47;;
9938;SDS011;5008;50.656;7.188;2023-02-07T16:35:17;5.63;;;4.23;;
9938;SDS011;5008;50.656;7.188;2023-02-07T16:37:46;5.37;;;4.50;;
9938;SDS011;5008;50.656;7.188;2023-02-07T16:40:13;5.77;;;5.17;;
9938;SDS011;5008;50.656;7.188;2023-02-07T16:42:40;7.53;;;4.97;;
9938;SDS011;5008;50.656;7.188;2023-02-07T16:45:17;9.10;;;5.50;;
9938;SDS011;5008;50.656;7.188;2023-02-07T16:47:46;7.67;;;5.40;;
9938;SDS011;5008;50.656;7.188;2023-02-07T16:50:16;6.27;;;4.97;;
9938;SDS011;5008;50.656;7.188;2023-02-07T16:52:44;6.33;;;4.70;;
9938;SDS011;5008;50.656;7.188;2023-02-07T16:55:14;7.93;;;5.13;;
9938;SDS011;5008;50.656;7.188;2023-02-07T16:57:41;7.40;;;4.50;;
9938;SDS011;5008;50.656;7.188;2023-02-07T17:00:12;6.93;;;4.47;;
9938;SDS011;5008;50.656;7.188;2023-02-07T17:02:41;10.30;;;8.07;;
9938;SDS011;5008;50.656;7.188;2023-02-07T17:05:08;7.03;;;5.63;;
9938;SDS011;5008;50.656;7.188;2023-02-07T17:07:35;11.70;;;7.23;;
9938;SDS011;5008;50.656;7.188;2023-02-07T17:10:07;8.43;;;7.53;;
9938;SDS011;5008;50.656;7.188;2023-02-07T17:12:43;8.83;;;6.90;;
9938;SDS011;5008;50.656;7.188;2023-02-07T17:15:09;6.97;;;5.90;;
9938;SDS011;5008;50.656;7.188;2023-02-07T17:17:36;9.27;;;7.07;;
9938;SDS011;5008;50.656;7.188;2023-02-07T17:20:07;8.60;;;7.10;;
9938;SDS011;5008;50.656;7.188;2023-02-07T17:22:42;8.40;;;6.87;;
9938;SDS011;5008;50.656;7.188;2023-02-07T17:25:10;9.80;;;7.70;;
9938;SDS011;5008;50.656;7.188;2023-02-07T17:27:37;11.23;;;9.50;;
9938;SDS011;5008;50.656;7.188;2023-02-07T17:30:05;13.70;;;10.23;;
9938;SDS011;5008;50.656;7.188;2023-02-07T17:32:40;10.17;;;9.07;;
9938;SDS011;5008;50.656;7.188;2023-02-07T17:35:07;9.80;;;8.80;;
9938;SDS011;5008;50.656;7.188;2023-02-07T17:37:34;10.43;;;8.47;;
9938;SDS011;5008;50.656;7.188;2023-02-07T17:40:01;10.97;;;8.93;;
9938;SDS011;5008;50.656;7.188;2023-02-07T17:42:29;10.80;;;8.97;;
9938;SDS011;5008;50.656;7.188;2023-02-07T17:44:56;9.63;;;8.63;;
9938;SDS011;5008;50.656;7.188;2023-02-07T17:47:23;11.27;;;8.93;;
9938;SDS011;5008;50.656;7.188;2023-02-07T17:49:50;12.80;;;9.83;;
9938;SDS011;5008;50.656;7.188;2023-02-07T17:52:17;13.07;;;9.63;;
9938;SDS011;5008;50.656;7.188;2023-02-07T17:54:44;13.23;;;9.63;;
9938;SDS011;5008;50.656;7.188;2023-02-07T17:57:11;11.13;;;8.47;;
9938;SDS011;5008;50.656;7.188;2023-02-07T17:59:39;11.43;;;7.90;;
9938;SDS011;5008;50.656;7.188;2023-02-07T18:02:07;11.53;;;8.23;;
9938;SDS011;5008;50.656;7.188;2023-02-07T18:04:35;11.53;;;8.77;;
9938;SDS011;5008;50.656;7.188;2023-02-07T18:07:03;11.13;;;9.07;;
9938;SDS011;5008;50.656;7.188;2023-02-07T18:09:29;12.43;;;9.30;;
9938;SDS011;5008;50.656;7.188;2023-02-07T18:11:56;12.23;;;9.50;;
9938;SDS011;5008;50.656;7.188;2023-02-07T18:14:25;12.60;;;9.43;;
9938;SDS011;5008;50.656;7.188;2023-02-07T18:16:53;13.00;;;9.47;;
9938;SDS011;5008;50.656;7.188;2023-02-07T18:19:20;11.83;;;9.80;;
9938;SDS011;5008;50.656;7.188;2023-02-07T18:21:47;17.77;;;11.17;;
9938;SDS011;5008;50.656;7.188;2023-02-07T18:24:15;16.00;;;11.40;;
9938;SDS011;5008;50.656;7.188;2023-02-07T18:26:41;16.50;;;11.63;;
9938;SDS011;5008;50.656;7.188;2023-02-07T18:29:10;19.23;;;13.03;;
9938;SDS011;5008;50.656;7.188;2023-02-07T18:31:37;16.60;;;11.83;;
9938;SDS011;5008;50.656;7.188;2023-02-07T18:34:05;15.33;;;11.33;;
9938;SDS011;5008;50.656;7.188;2023-02-07T18:36:32;15.53;;;12.07;;
9938;SDS011;5008;50.656;7.188;2023-02-07T18:39:04;16.57;;;12.00;;
9938;SDS011;5008;50.656;7.188;2023-02-07T18:41:31;13.90;;;11.07;;
9938;SDS011;5008;50.656;7.188;2023-02-07T18:43:58;14.33;;;11.10;;
9938;SDS011;5008;50.656;7.188;2023-02-07T18:46:26;17.53;;;11.43;;
9938;SDS011;5008;50.656;7.188;2023-02-07T18:48:56;14.07;;;11.10;;
9938;SDS011;5008;50.656;7.188;2023-02-07T18:51:25;14.50;;;10.37;;
9938;SDS011;5008;50.656;7.188;2023-02-07T18:53:52;13.77;;;10.53;;
9938;SDS011;5008;50.656;7.188;2023-02-07T18:56:20;14.60;;;10.93;;
9938;SDS011;5008;50.656;7.188;2023-02-07T18:58:51;14.07;;;10.27;;
9938;SDS011;5008;50.656;7.188;2023-02-07T19:01:20;12.43;;;10.10;;
9938;SDS011;5008;50.656;7.188;2023-02-07T19:03:50;13.30;;;10.33;;
9938;SDS011;5008;50.656;7.188;2023-02-07T19:06:18;15.03;;;10.00;;
9938;SDS011;5008;50.656;7.188;2023-02-07T19:08:55;13.23;;;11.20;;
9938;SDS011;5008;50.656;7.188;2023-02-07T19:11:22;13.00;;;10.37;;
9938;SDS011;5008;50.656;7.188;2023-02-07T19:13:49;14.80;;;12.10;;
9938;SDS011;5008;50.656;7.188;2023-02-07T19:16:17;13.43;;;11.80;;
9938;SDS011;5008;50.656;7.188;2023-02-07T19:18:46;14.40;;;11.93;;
9938;SDS011;5008;50.656;7.188;2023-02-07T19:21:14;14.87;;;11.00;;
9938;SDS011;5008;50.656;7.188;2023-02-07T19:23:44;14.23;;;10.97;;
9938;SDS011;5008;50.656;7.188;2023-02-07T19:26:13;13.13;;;11.50;;
9938;SDS011;5008;50.656;7.188;2023-02-07T19:28:40;14.63;;;11.53;;
9938;SDS011;5008;50.656;7.188;2023-02-07T19:31:07;16.13;;;12.73;;
9938;SDS011;5008;50.656;7.188;2023-02-07T19:33:37;15.30;;;12.03;;
9938;SDS011;5008;50.656;7.188;2023-02-07T19:36:05;12.33;;;10.60;;
9938;SDS011;5008;50.656;7.188;2023-02-07T19:38:34;15.33;;;11.80;;
9938;SDS011;5008;50.656;7.188;2023-02-07T19:41:01;14.97;;;11.03;;
9938;SDS011;5008;50.656;7.188;2023-02-07T19:43:33;13.33;;;11.30;;
9938;SDS011;5008;50.656;7.188;2023-02-07T19:46:01;13.30;;;11.23;;
9938;SDS011;5008;50.656;7.188;2023-02-07T19:48:28;11.93;;;10.60;;
9938;SDS011;5008;50.656;7.188;2023-02-07T19:50:58;13.67;;;10.43;;
9938;SDS011;5008;50.656;7.188;2023-02-07T19:53:26;11.40;;;10.20;;
9938;SDS011;5008;50.656;7.188;2023-02-07T19:55:57;11.97;;;10.13;;
9938;SDS011;5008;50.656;7.188;2023-02-07T19:58:26;12.33;;;10.20;;
9938;SDS011;5008;50.656;7.188;2023-02-07T20:00:54;12.20;;;9.53;;
9938;SDS011;5008;50.656;7.188;2023-02-07T20:03:22;13.03;;;10.27;;
9938;SDS011;5008;50.656;7.188;2023-02-07T20:05:49;13.77;;;10.87;;
9938;SDS011;5008;50.656;7.188;2023-02-07T20:08:17;13.93;;;11.07;;
9938;SDS011;5008;50.656;7.188;2023-02-07T20:10:49;13.73;;;11.37;;
9938;SDS011;5008;50.656;7.188;2023-02-07T20:13:16;13.63;;;10.93;;
9938;SDS011;5008;50.656;7.188;2023-02-07T20:15:43;13.37;;;11.27;;
9938;SDS011;5008;50.656;7.188;2023-02-07T20:18:13;13.47;;;10.87;;
9938;SDS011;5008;50.656;7.188;2023-02-07T20:20:39;12.37;;;10.57;;
9938;SDS011;5008;50.656;7.188;2023-02-07T20:23:07;13.83;;;11.67;;
9938;SDS011;5008;50.656;7.188;2023-02-07T20:25:34;16.63;;;11.37;;
9938;SDS011;5008;50.656;7.188;2023-02-07T20:28:02;13.57;;;11.17;;
9938;SDS011;5008;50.656;7.188;2023-02-07T20:30:30;15.83;;;11.33;;
9938;SDS011;5008;50.656;7.188;2023-02-07T20:32:57;16.73;;;12.47;;
9938;SDS011;5008;50.656;7.188;2023-02-07T20:35:25;14.63;;;11.13;;
9938;SDS011;5008;50.656;7.188;2023-02-07T20:37:52;13.87;;;11.57;;
9938;SDS011;5008;50.656;7.188;2023-02-07T20:40:19;13.63;;;11.67;;
9938;SDS011;5008;50.656;7.188;2023-02-07T20:42:46;16.33;;;13.67;;
9938;SDS011;5008;50.656;7.188;2023-02-07T20:45:13;16.43;;;14.00;;
9938;SDS011;5008;50.656;7.188;2023-02-07T20:47:39;18.07;;;13.33;;
9938;SDS011;5008;50.656;7.188;2023-02-07T20:50:06;15.53;;;12.33;;